sensor_id;sensor_type;location;lat;lon;timestamp;P1;durP1;ratioP1;P2;durP2;ratioP2
51660;SDS011;37741;49.748;8.490;2024-01-15T00:02:08;25.75;;;14.30;;
51660;SDS011;37741;49.748;8.490;2024-01-15T00:04:37;29.88;;;15.07;;
51660;SDS011;37741;49.748;8.490;2024-01-15T00:07:06;23.77;;;13.45;;
51660;SDS011;37741;49.748;8.490;2024-01-15T00:09:32;22.38;;;12.38;;
51660;SDS011;37741;49.748;8.490;2024-01-15T00:11:58;24.90;;;12.80;;
51660;SDS011;37741;49.748;8.490;2024-01-15T00:14:24;23.75;;;12.82;;
51660;SDS011;37741;49.748;8.490;2024-01-15T00:16:50;23.17;;;12.50;;
51660;SDS011;37741;49.748;8.490;2024-01-15T00:19:16;27.88;;;13.30;;
51660;SDS011;37741;49.748;8.490;2024-01-15T00:21:43;25.98;;;11.80;;
51660;SDS011;37741;49.748;8.490;2024-01-15T00:24:09;20.80;;;11.85;;
51660;SDS011;37741;49.748;8.490;2024-01-15T00:26:34;24.20;;;12.90;;
51660;SDS011;37741;49.748;8.490;2024-01-15T00:29:00;23.43;;;13.37;;
51660;SDS011;37741;49.748;8.490;2024-01-15T00:31:26;26.13;;;12.27;;
51660;SDS011;37741;49.748;8.490;2024-01-15T00:33:52;27.00;;;12.93;;
51660;SDS011;37741;49.748;8.490;2024-01-15T00:36:17;23.90;;;12.70;;
51660;SDS011;37741;49.748;8.490;2024-01-15T00:38:45;23.02;;;12.15;;
51660;SDS011;37741;49.748;8.490;2024-01-15T00:41:12;22.08;;;12.18;;
51660;SDS011;37741;49.748;8.490;2024-01-15T00:43:38;24.40;;;12.60;;
51660;SDS011;37741;49.748;8.490;2024-01-15T00:46:04;26.65;;;13.23;;
51660;SDS011;37741;49.748;8.490;2024-01-15T00:48:30;22.80;;;11.73;;
51660;SDS011;37741;49.748;8.490;2024-01-15T00:50:56;23.90;;;12.50;;
51660;SDS011;37741;49.748;8.490;2024-01-15T00:53:21;25.92;;;12.70;;
51660;SDS011;37741;49.748;8.490;2024-01-15T00:55:47;22.05;;;12.15;;
51660;SDS011;37741;49.748;8.490;2024-01-15T00:58:13;25.35;;;12.55;;
51660;SDS011;37741;49.748;8.490;2024-01-15T01:00:39;25.77;;;13.10;;
51660;SDS011;37741;49.748;8.490;2024-01-15T01:03:05;23.33;;;13.27;;
51660;SDS011;37741;49.748;8.490;2024-01-15T01:05:31;24.08;;;12.75;;
51660;SDS011;37741;49.748;8.490;2024-01-15T01:07:57;23.08;;;12.75;;
51660;SDS011;37741;49.748;8.490;2024-01-15T01:10:23;26.80;;;11.85;;
51660;SDS011;37741;49.748;8.490;2024-01-15T01:12:49;21.67;;;11.80;;
51660;SDS011;37741;49.748;8.490;2024-01-15T01:15:14;25.80;;;12.57;;
51660;SDS011;37741;49.748;8.490;2024-01-15T01:17:40;24.83;;;12.38;;
51660;SDS011;37741;49.748;8.490;2024-01-15T01:20:06;23.75;;;12.20;;
51660;SDS011;37741;49.748;8.490;2024-01-15T01:22:34;22.35;;;12.30;;
51660;SDS011;37741;49.748;8.490;2024-01-15T01:25:00;27.52;;;13.85;;
51660;SDS011;37741;49.748;8.490;2024-01-15T01:27:25;22.83;;;11.88;;
51660;SDS011;37741;49.748;8.490;2024-01-15T01:29:51;26.45;;;13.32;;
51660;SDS011;37741;49.748;8.490;2024-01-15T01:32:17;22.58;;;12.27;;
51660;SDS011;37741;49.748;8.490;2024-01-15T01:34:42;24.50;;;12.48;;
51660;SDS011;37741;49.748;8.490;2024-01-15T01:37:08;25.50;;;13.73;;
51660;SDS011;37741;49.748;8.490;2024-01-15T01:39:35;25.88;;;12.85;;
51660;SDS011;37741;49.748;8.490;2024-01-15T01:42:00;24.55;;;11.77;;
51660;SDS011;37741;49.748;8.490;2024-01-15T01:44:26;28.02;;;14.77;;
51660;SDS011;37741;49.748;8.490;2024-01-15T01:46:51;28.75;;;13.90;;
51660;SDS011;37741;49.748;8.490;2024-01-15T01:49:18;22.77;;;11.32;;
51660;SDS011;37741;49.748;8.490;2024-01-15T01:51:43;27.27;;;13.00;;
51660;SDS011;37741;49.748;8.490;2024-01-15T01:54:09;30.85;;;13.40;;
51660;SDS011;37741;49.748;8.490;2024-01-15T01:56:38;24.90;;;13.05;;
51660;SDS011;37741;49.748;8.490;2024-01-15T01:59:05;26.17;;;12.63;;
51660;SDS011;37741;49.748;8.490;2024-01-15T02:01:32;23.17;;;12.73;;
51660;SDS011;37741;49.748;8.490;2024-01-15T02:03:59;24.53;;;12.57;;
51660;SDS011;37741;49.748;8.490;2024-01-15T02:06:25;28.05;;;13.20;;
51660;SDS011;37741;49.748;8.490;2024-01-15T02:08:50;25.17;;;11.93;;
51660;SDS011;37741;49.748;8.490;2024-01-15T02:11:17;27.73;;;12.68;;
51660;SDS011;37741;49.748;8.490;2024-01-15T02:13:42;26.38;;;13.77;;
51660;SDS011;37741;49.748;8.490;2024-01-15T02:16:08;27.98;;;12.93;;
51660;SDS011;37741;49.748;8.490;2024-01-15T02:18:40;26.47;;;12.80;;
51660;SDS011;37741;49.748;8.490;2024-01-15T02:21:06;27.30;;;11.82;;
51660;SDS011;37741;49.748;8.490;2024-01-15T02:23:32;30.52;;;13.80;;
51660;SDS011;37741;49.748;8.490;2024-01-15T02:25:58;26.73;;;12.83;;
51660;SDS011;37741;49.748;8.490;2024-01-15T02:28:23;24.10;;;12.93;;
51660;SDS011;37741;49.748;8.490;2024-01-15T02:30:49;22.90;;;11.43;;
51660;SDS011;37741;49.748;8.490;2024-01-15T02:33:15;26.73;;;12.97;;
51660;SDS011;37741;49.748;8.490;2024-01-15T02:35:40;23.35;;;12.35;;
51660;SDS011;37741;49.748;8.490;2024-01-15T02:38:06;25.05;;;12.32;;
51660;SDS011;37741;49.748;8.490;2024-01-15T02:40:33;25.30;;;12.55;;
51660;SDS011;37741;49.748;8.490;2024-01-15T02:42:59;28.52;;;13.70;;
51660;SDS011;37741;49.748;8.490;2024-01-15T02:45:25;25.15;;;12.82;;
51660;SDS011;37741;49.748;8.490;2024-01-15T02:47:52;23.27;;;12.10;;
51660;SDS011;37741;49.748;8.490;2024-01-15T02:50:17;24.70;;;11.57;;
51660;SDS011;37741;49.748;8.490;2024-01-15T02:52:43;24.33;;;12.88;;
51660;SDS011;37741;49.748;8.490;2024-01-15T02:55:09;27.23;;;13.43;;
51660;SDS011;37741;49.748;8.490;2024-01-15T02:57:34;25.73;;;12.30;;
51660;SDS011;37741;49.748;8.490;2024-01-15T03:00:00;29.75;;;14.65;;
51660;SDS011;37741;49.748;8.490;2024-01-15T03:02:26;26.02;;;13.82;;
51660;SDS011;37741;49.748;8.490;2024-01-15T03:04:51;24.77;;;12.52;;
51660;SDS011;37741;49.748;8.490;2024-01-15T03:07:17;30.08;;;13.65;;
51660;SDS011;37741;49.748;8.490;2024-01-15T03:09:43;24.10;;;11.80;;
51660;SDS011;37741;49.748;8.490;2024-01-15T03:12:09;28.38;;;13.48;;
51660;SDS011;37741;49.748;8.490;2024-01-15T03:14:35;26.23;;;12.75;;
51660;SDS011;37741;49.748;8.490;2024-01-15T03:17:00;25.00;;;12.47;;
51660;SDS011;37741;49.748;8.490;2024-01-15T03:19:26;24.83;;;12.35;;
51660;SDS011;37741;49.748;8.490;2024-01-15T03:21:52;26.08;;;12.35;;
51660;SDS011;37741;49.748;8.490;2024-01-15T03:24:17;22.63;;;12.52;;
51660;SDS011;37741;49.748;8.490;2024-01-15T03:26:43;29.20;;;12.10;;
51660;SDS011;37741;49.748;8.490;2024-01-15T03:29:09;21.40;;;11.43;;
51660;SDS011;37741;49.748;8.490;2024-01-15T03:31:34;25.77;;;12.75;;
51660;SDS011;37741;49.748;8.490;2024-01-15T03:34:16;24.00;;;12.05;;
51660;SDS011;37741;49.748;8.490;2024-01-15T03:36:41;24.38;;;13.02;;
51660;SDS011;37741;49.748;8.490;2024-01-15T03:39:07;21.15;;;10.85;;
51660;SDS011;37741;49.748;8.490;2024-01-15T03:41:33;27.83;;;12.90;;
51660;SDS011;37741;49.748;8.490;2024-01-15T03:43:58;23.90;;;11.65;;
51660;SDS011;37741;49.748;8.490;2024-01-15T03:46:24;21.33;;;11.82;;
51660;SDS011;37741;49.748;8.490;2024-01-15T03:48:50;26.23;;;12.97;;
51660;SDS011;37741;49.748;8.490;2024-01-15T03:51:17;20.58;;;10.85;;
51660;SDS011;37741;49.748;8.490;2024-01-15T03:53:42;23.42;;;11.75;;
51660;SDS011;37741;49.748;8.490;2024-01-15T03:56:08;19.95;;;10.88;;
51660;SDS011;37741;49.748;8.490;2024-01-15T03:58:34;22.80;;;12.02;;
51660;SDS011;37741;49.748;8.490;2024-01-15T04:00:59;25.27;;;11.07;;
51660;SDS011;37741;49.748;8.490;2024-01-15T04:03:25;21.73;;;11.10;;
51660;SDS011;37741;49.748;8.490;2024-01-15T04:05:50;22.17;;;12.17;;
51660;SDS011;37741;49.748;8.490;2024-01-15T04:08:16;21.38;;;11.15;;
51660;SDS011;37741;49.748;8.490;2024-01-15T04:10:41;26.70;;;12.32;;
51660;SDS011;37741;49.748;8.490;2024-01-15T04:13:07;23.63;;;11.98;;
51660;SDS011;37741;49.748;8.490;2024-01-15T04:15:33;23.02;;;11.55;;
51660;SDS011;37741;49.748;8.490;2024-01-15T04:17:58;20.27;;;11.10;;
51660;SDS011;37741;49.748;8.490;2024-01-15T04:20:26;22.37;;;11.17;;
51660;SDS011;37741;49.748;8.490;2024-01-15T04:22:51;20.23;;;11.07;;
51660;SDS011;37741;49.748;8.490;2024-01-15T04:25:17;22.52;;;11.65;;
51660;SDS011;37741;49.748;8.490;2024-01-15T04:27:43;22.15;;;11.07;;
51660;SDS011;37741;49.748;8.490;2024-01-15T04:30:08;21.52;;;10.13;;
51660;SDS011;37741;49.748;8.490;2024-01-15T04:32:34;20.90;;;10.23;;
51660;SDS011;37741;49.748;8.490;2024-01-15T04:35:00;26.10;;;11.88;;
51660;SDS011;37741;49.748;8.490;2024-01-15T04:37:25;21.23;;;11.38;;
51660;SDS011;37741;49.748;8.490;2024-01-15T04:39:51;25.50;;;11.85;;
51660;SDS011;37741;49.748;8.490;2024-01-15T04:42:19;21.13;;;11.30;;
51660;SDS011;37741;49.748;8.490;2024-01-15T04:44:48;23.93;;;12.10;;
51660;SDS011;37741;49.748;8.490;2024-01-15T04:47:14;21.90;;;10.95;;
51660;SDS011;37741;49.748;8.490;2024-01-15T04:49:39;18.63;;;9.55;;
51660;SDS011;37741;49.748;8.490;2024-01-15T04:52:05;20.67;;;11.65;;
51660;SDS011;37741;49.748;8.490;2024-01-15T04:54:32;20.98;;;9.93;;
51660;SDS011;37741;49.748;8.490;2024-01-15T04:56:58;20.23;;;10.57;;
51660;SDS011;37741;49.748;8.490;2024-01-15T04:59:23;22.10;;;11.25;;
51660;SDS011;37741;49.748;8.490;2024-01-15T05:01:49;20.15;;;10.43;;
51660;SDS011;37741;49.748;8.490;2024-01-15T05:04:14;20.98;;;11.65;;
51660;SDS011;37741;49.748;8.490;2024-01-15T05:06:40;22.70;;;11.45;;
51660;SDS011;37741;49.748;8.490;2024-01-15T05:09:06;19.67;;;10.35;;
51660;SDS011;37741;49.748;8.490;2024-01-15T05:11:32;25.03;;;10.90;;
51660;SDS011;37741;49.748;8.490;2024-01-15T05:13:58;21.70;;;10.47;;
51660;SDS011;37741;49.748;8.490;2024-01-15T05:16:23;23.77;;;10.90;;
51660;SDS011;37741;49.748;8.490;2024-01-15T05:18:49;21.05;;;10.50;;
51660;SDS011;37741;49.748;8.490;2024-01-15T05:21:15;19.23;;;11.05;;
51660;SDS011;37741;49.748;8.490;2024-01-15T05:23:40;18.70;;;10.52;;
51660;SDS011;37741;49.748;8.490;2024-01-15T05:26:06;25.83;;;12.40;;
51660;SDS011;37741;49.748;8.490;2024-01-15T05:28:33;22.25;;;11.10;;
51660;SDS011;37741;49.748;8.490;2024-01-15T05:30:59;22.42;;;11.15;;
51660;SDS011;37741;49.748;8.490;2024-01-15T05:33:25;18.42;;;9.75;;
51660;SDS011;37741;49.748;8.490;2024-01-15T05:35:51;21.38;;;10.90;;
51660;SDS011;37741;49.748;8.490;2024-01-15T05:38:17;22.97;;;11.53;;
51660;SDS011;37741;49.748;8.490;2024-01-15T05:40:42;21.13;;;10.82;;
51660;SDS011;37741;49.748;8.490;2024-01-15T05:43:08;22.52;;;10.63;;
51660;SDS011;37741;49.748;8.490;2024-01-15T05:45:34;24.05;;;11.10;;
51660;SDS011;37741;49.748;8.490;2024-01-15T05:48:00;18.77;;;9.73;;
51660;SDS011;37741;49.748;8.490;2024-01-15T05:50:29;17.45;;;9.93;;
51660;SDS011;37741;49.748;8.490;2024-01-15T05:52:57;22.13;;;11.82;;
51660;SDS011;37741;49.748;8.490;2024-01-15T05:55:23;20.52;;;11.60;;
51660;SDS011;37741;49.748;8.490;2024-01-15T05:57:48;19.27;;;10.85;;
51660;SDS011;37741;49.748;8.490;2024-01-15T06:00:14;23.38;;;11.63;;
51660;SDS011;37741;49.748;8.490;2024-01-15T06:02:40;21.73;;;11.43;;
51660;SDS011;37741;49.748;8.490;2024-01-15T06:05:06;25.63;;;10.95;;
51660;SDS011;37741;49.748;8.490;2024-01-15T06:07:34;20.40;;;10.17;;
51660;SDS011;37741;49.748;8.490;2024-01-15T06:10:00;20.20;;;10.38;;
51660;SDS011;37741;49.748;8.490;2024-01-15T06:12:26;23.13;;;11.50;;
51660;SDS011;37741;49.748;8.490;2024-01-15T06:14:53;24.13;;;11.68;;
51660;SDS011;37741;49.748;8.490;2024-01-15T06:17:18;21.90;;;11.10;;
51660;SDS011;37741;49.748;8.490;2024-01-15T06:19:44;21.67;;;10.17;;
51660;SDS011;37741;49.748;8.490;2024-01-15T06:22:10;18.93;;;10.20;;
51660;SDS011;37741;49.748;8.490;2024-01-15T06:24:35;21.33;;;11.05;;
51660;SDS011;37741;49.748;8.490;2024-01-15T06:27:01;21.17;;;10.55;;
51660;SDS011;37741;49.748;8.490;2024-01-15T06:29:27;22.10;;;11.23;;
51660;SDS011;37741;49.748;8.490;2024-01-15T06:31:53;19.00;;;10.02;;
51660;SDS011;37741;49.748;8.490;2024-01-15T06:34:19;19.05;;;11.25;;
51660;SDS011;37741;49.748;8.490;2024-01-15T06:36:45;18.77;;;10.55;;
51660;SDS011;37741;49.748;8.490;2024-01-15T06:39:10;19.25;;;10.10;;
51660;SDS011;37741;49.748;8.490;2024-01-15T06:41:36;20.35;;;10.18;;
51660;SDS011;37741;49.748;8.490;2024-01-15T06:44:12;19.17;;;10.57;;
51660;SDS011;37741;49.748;8.490;2024-01-15T06:46:43;19.90;;;10.52;;
51660;SDS011;37741;49.748;8.490;2024-01-15T06:49:10;19.13;;;10.52;;
51660;SDS011;37741;49.748;8.490;2024-01-15T06:51:36;17.20;;;9.90;;
51660;SDS011;37741;49.748;8.490;2024-01-15T06:54:02;18.52;;;10.35;;
51660;SDS011;37741;49.748;8.490;2024-01-15T06:56:27;19.85;;;10.15;;
51660;SDS011;37741;49.748;8.490;2024-01-15T06:58:53;21.17;;;11.05;;
51660;SDS011;37741;49.748;8.490;2024-01-15T07:01:19;19.80;;;10.63;;
51660;SDS011;37741;49.748;8.490;2024-01-15T07:03:45;22.25;;;11.45;;
51660;SDS011;37741;49.748;8.490;2024-01-15T07:06:11;20.50;;;11.60;;
51660;SDS011;37741;49.748;8.490;2024-01-15T07:08:37;21.77;;;10.52;;
51660;SDS011;37741;49.748;8.490;2024-01-15T07:11:03;19.10;;;10.52;;
51660;SDS011;37741;49.748;8.490;2024-01-15T07:13:30;20.55;;;11.55;;
51660;SDS011;37741;49.748;8.490;2024-01-15T07:15:55;21.52;;;10.95;;
51660;SDS011;37741;49.748;8.490;2024-01-15T07:18:21;24.07;;;12.03;;
51660;SDS011;37741;49.748;8.490;2024-01-15T07:20:47;21.37;;;10.73;;
51660;SDS011;37741;49.748;8.490;2024-01-15T07:23:12;21.90;;;11.30;;
51660;SDS011;37741;49.748;8.490;2024-01-15T07:25:38;21.60;;;11.40;;
51660;SDS011;37741;49.748;8.490;2024-01-15T07:28:04;21.47;;;11.53;;
51660;SDS011;37741;49.748;8.490;2024-01-15T07:30:32;21.85;;;10.98;;
51660;SDS011;37741;49.748;8.490;2024-01-15T07:33:00;23.23;;;11.77;;
51660;SDS011;37741;49.748;8.490;2024-01-15T07:35:26;18.30;;;10.70;;
51660;SDS011;37741;49.748;8.490;2024-01-15T07:37:52;18.30;;;10.85;;
51660;SDS011;37741;49.748;8.490;2024-01-15T07:40:18;20.08;;;11.77;;
51660;SDS011;37741;49.748;8.490;2024-01-15T07:42:43;20.65;;;11.27;;
51660;SDS011;37741;49.748;8.490;2024-01-15T07:45:12;22.85;;;12.48;;
51660;SDS011;37741;49.748;8.490;2024-01-15T07:47:38;22.83;;;12.23;;
51660;SDS011;37741;49.748;8.490;2024-01-15T07:50:04;20.85;;;11.00;;
51660;SDS011;37741;49.748;8.490;2024-01-15T07:52:30;21.90;;;11.32;;
51660;SDS011;37741;49.748;8.490;2024-01-15T07:54:56;22.50;;;12.00;;
51660;SDS011;37741;49.748;8.490;2024-01-15T07:57:24;21.83;;;12.00;;
51660;SDS011;37741;49.748;8.490;2024-01-15T07:59:50;22.15;;;11.10;;
51660;SDS011;37741;49.748;8.490;2024-01-15T08:02:16;26.95;;;13.15;;
51660;SDS011;37741;49.748;8.490;2024-01-15T08:04:42;20.75;;;11.52;;
51660;SDS011;37741;49.748;8.490;2024-01-15T08:07:09;19.07;;;11.50;;
51660;SDS011;37741;49.748;8.490;2024-01-15T08:09:35;19.83;;;10.30;;
51660;SDS011;37741;49.748;8.490;2024-01-15T08:12:01;21.17;;;11.68;;
51660;SDS011;37741;49.748;8.490;2024-01-15T08:14:27;18.83;;;10.82;;
51660;SDS011;37741;49.748;8.490;2024-01-15T08:16:52;20.57;;;10.90;;
51660;SDS011;37741;49.748;8.490;2024-01-15T08:19:18;21.90;;;11.00;;
51660;SDS011;37741;49.748;8.490;2024-01-15T08:21:45;21.42;;;11.10;;
51660;SDS011;37741;49.748;8.490;2024-01-15T08:24:10;22.93;;;12.00;;
51660;SDS011;37741;49.748;8.490;2024-01-15T08:26:36;19.20;;;10.90;;
51660;SDS011;37741;49.748;8.490;2024-01-15T08:29:02;20.25;;;11.55;;
51660;SDS011;37741;49.748;8.490;2024-01-15T08:31:27;20.50;;;11.27;;
51660;SDS011;37741;49.748;8.490;2024-01-15T08:33:53;20.45;;;10.48;;
51660;SDS011;37741;49.748;8.490;2024-01-15T08:36:26;22.15;;;11.95;;
51660;SDS011;37741;49.748;8.490;2024-01-15T08:38:53;18.63;;;11.30;;
51660;SDS011;37741;49.748;8.490;2024-01-15T08:41:21;21.33;;;11.20;;
51660;SDS011;37741;49.748;8.490;2024-01-15T08:43:47;18.10;;;10.30;;
51660;SDS011;37741;49.748;8.490;2024-01-15T08:46:22;19.47;;;10.50;;
51660;SDS011;37741;49.748;8.490;2024-01-15T08:48:56;19.77;;;10.52;;
51660;SDS011;37741;49.748;8.490;2024-01-15T08:51:22;19.13;;;10.38;;
51660;SDS011;37741;49.748;8.490;2024-01-15T08:53:48;19.63;;;11.05;;
51660;SDS011;37741;49.748;8.490;2024-01-15T08:56:18;18.10;;;10.30;;
51660;SDS011;37741;49.748;8.490;2024-01-15T08:58:44;17.42;;;9.95;;
51660;SDS011;37741;49.748;8.490;2024-01-15T09:01:14;16.83;;;9.53;;
51660;SDS011;37741;49.748;8.490;2024-01-15T09:03:40;18.63;;;10.80;;
51660;SDS011;37741;49.748;8.490;2024-01-15T09:06:10;18.95;;;11.00;;
51660;SDS011;37741;49.748;8.490;2024-01-15T09:08:36;18.15;;;10.60;;
51660;SDS011;37741;49.748;8.490;2024-01-15T09:11:02;17.63;;;10.63;;
51660;SDS011;37741;49.748;8.490;2024-01-15T09:13:28;18.70;;;11.25;;
51660;SDS011;37741;49.748;8.490;2024-01-15T09:15:54;21.00;;;11.18;;
51660;SDS011;37741;49.748;8.490;2024-01-15T09:18:20;19.75;;;10.85;;
51660;SDS011;37741;49.748;8.490;2024-01-15T09:20:45;19.23;;;11.13;;
51660;SDS011;37741;49.748;8.490;2024-01-15T09:23:11;19.95;;;10.40;;
51660;SDS011;37741;49.748;8.490;2024-01-15T09:25:37;19.27;;;10.60;;
51660;SDS011;37741;49.748;8.490;2024-01-15T09:28:03;17.95;;;9.77;;
51660;SDS011;37741;49.748;8.490;2024-01-15T09:30:28;19.67;;;10.65;;
51660;SDS011;37741;49.748;8.490;2024-01-15T09:32:54;19.58;;;9.65;;
51660;SDS011;37741;49.748;8.490;2024-01-15T09:35:20;16.65;;;9.63;;
51660;SDS011;37741;49.748;8.490;2024-01-15T09:37:45;17.58;;;9.68;;
51660;SDS011;37741;49.748;8.490;2024-01-15T09:40:14;18.10;;;10.80;;
51660;SDS011;37741;49.748;8.490;2024-01-15T09:42:47;20.42;;;10.15;;
51660;SDS011;37741;49.748;8.490;2024-01-15T09:45:13;16.85;;;9.98;;
51660;SDS011;37741;49.748;8.490;2024-01-15T09:47:40;16.80;;;9.32;;
51660;SDS011;37741;49.748;8.490;2024-01-15T09:50:08;17.02;;;9.77;;
51660;SDS011;37741;49.748;8.490;2024-01-15T09:53:12;15.63;;;9.85;;
51660;SDS011;37741;49.748;8.490;2024-01-15T09:55:40;17.02;;;9.63;;
51660;SDS011;37741;49.748;8.490;2024-01-15T09:58:06;18.65;;;10.43;;
51660;SDS011;37741;49.748;8.490;2024-01-15T10:00:33;16.88;;;10.10;;
51660;SDS011;37741;49.748;8.490;2024-01-15T10:03:03;16.80;;;10.40;;
51660;SDS011;37741;49.748;8.490;2024-01-15T10:05:31;19.52;;;10.13;;
51660;SDS011;37741;49.748;8.490;2024-01-15T10:07:57;17.13;;;9.43;;
51660;SDS011;37741;49.748;8.490;2024-01-15T10:10:47;17.17;;;10.18;;
51660;SDS011;37741;49.748;8.490;2024-01-15T10:15:51;16.35;;;9.48;;
51660;SDS011;37741;49.748;8.490;2024-01-15T10:18:16;16.85;;;9.57;;
51660;SDS011;37741;49.748;8.490;2024-01-15T10:20:42;16.58;;;9.30;;
51660;SDS011;37741;49.748;8.490;2024-01-15T10:23:08;22.00;;;11.07;;
51660;SDS011;37741;49.748;8.490;2024-01-15T10:25:35;17.38;;;9.32;;
51660;SDS011;37741;49.748;8.490;2024-01-15T10:28:03;18.92;;;10.80;;
51660;SDS011;37741;49.748;8.490;2024-01-15T10:30:30;17.70;;;9.68;;
51660;SDS011;37741;49.748;8.490;2024-01-15T10:32:57;16.88;;;9.20;;
51660;SDS011;37741;49.748;8.490;2024-01-15T10:35:26;14.43;;;9.00;;
51660;SDS011;37741;49.748;8.490;2024-01-15T10:37:54;18.17;;;10.70;;
51660;SDS011;37741;49.748;8.490;2024-01-15T10:40:22;15.05;;;9.23;;
51660;SDS011;37741;49.748;8.490;2024-01-15T10:42:51;17.60;;;9.95;;
51660;SDS011;37741;49.748;8.490;2024-01-15T10:45:17;15.43;;;9.50;;
51660;SDS011;37741;49.748;8.490;2024-01-15T10:47:45;14.98;;;9.20;;
51660;SDS011;37741;49.748;8.490;2024-01-15T10:50:11;16.73;;;9.93;;
51660;SDS011;37741;49.748;8.490;2024-01-15T10:52:38;17.65;;;10.25;;
51660;SDS011;37741;49.748;8.490;2024-01-15T10:55:10;14.05;;;9.13;;
51660;SDS011;37741;49.748;8.490;2024-01-15T10:57:37;15.88;;;10.30;;
51660;SDS011;37741;49.748;8.490;2024-01-15T11:00:04;14.85;;;9.00;;
51660;SDS011;37741;49.748;8.490;2024-01-15T11:02:34;15.40;;;9.65;;
51660;SDS011;37741;49.748;8.490;2024-01-15T11:05:02;14.45;;;9.60;;
51660;SDS011;37741;49.748;8.490;2024-01-15T11:07:29;15.93;;;8.90;;
51660;SDS011;37741;49.748;8.490;2024-01-15T11:09:55;16.55;;;9.07;;
51660;SDS011;37741;49.748;8.490;2024-01-15T11:12:24;14.80;;;8.85;;
51660;SDS011;37741;49.748;8.490;2024-01-15T11:14:52;13.60;;;8.43;;
51660;SDS011;37741;49.748;8.490;2024-01-15T11:20:25;13.75;;;8.95;;
51660;SDS011;37741;49.748;8.490;2024-01-15T11:22:51;14.77;;;9.23;;
51660;SDS011;37741;49.748;8.490;2024-01-15T11:25:20;15.00;;;9.60;;
51660;SDS011;37741;49.748;8.490;2024-01-15T11:27:47;15.93;;;9.25;;
51660;SDS011;37741;49.748;8.490;2024-01-15T11:30:19;14.35;;;9.55;;
51660;SDS011;37741;49.748;8.490;2024-01-15T11:32:45;17.48;;;10.50;;
51660;SDS011;37741;49.748;8.490;2024-01-15T11:35:12;14.30;;;8.63;;
51660;SDS011;37741;49.748;8.490;2024-01-15T11:40:35;17.13;;;9.40;;
51660;SDS011;37741;49.748;8.490;2024-01-15T11:43:03;17.85;;;9.88;;
51660;SDS011;37741;49.748;8.490;2024-01-15T11:45:30;14.82;;;9.52;;
51660;SDS011;37741;49.748;8.490;2024-01-15T11:48:12;15.73;;;9.05;;
51660;SDS011;37741;49.748;8.490;2024-01-15T11:50:45;14.23;;;8.25;;
51660;SDS011;37741;49.748;8.490;2024-01-15T11:53:33;14.43;;;8.57;;
51660;SDS011;37741;49.748;8.490;2024-01-15T11:56:06;15.25;;;9.02;;
51660;SDS011;37741;49.748;8.490;2024-01-15T11:58:40;16.75;;;8.80;;
51660;SDS011;37741;49.748;8.490;2024-01-15T12:01:10;15.45;;;9.13;;
51660;SDS011;37741;49.748;8.490;2024-01-15T12:03:36;16.13;;;9.32;;
51660;SDS011;37741;49.748;8.490;2024-01-15T12:06:07;15.05;;;9.27;;
51660;SDS011;37741;49.748;8.490;2024-01-15T12:08:36;14.05;;;9.10;;
51660;SDS011;37741;49.748;8.490;2024-01-15T12:11:05;13.82;;;7.97;;
51660;SDS011;37741;49.748;8.490;2024-01-15T12:13:36;14.00;;;8.65;;
51660;SDS011;37741;49.748;8.490;2024-01-15T12:16:01;12.90;;;8.30;;
51660;SDS011;37741;49.748;8.490;2024-01-15T12:18:29;14.23;;;7.85;;
51660;SDS011;37741;49.748;8.490;2024-01-15T12:20:55;12.25;;;7.30;;
51660;SDS011;37741;49.748;8.490;2024-01-15T12:23:21;13.90;;;8.10;;
51660;SDS011;37741;49.748;8.490;2024-01-15T12:25:47;13.45;;;8.35;;
51660;SDS011;37741;49.748;8.490;2024-01-15T12:28:12;12.75;;;7.97;;
51660;SDS011;37741;49.748;8.490;2024-01-15T12:30:39;13.60;;;8.75;;
51660;SDS011;37741;49.748;8.490;2024-01-15T12:33:06;17.30;;;8.45;;
51660;SDS011;37741;49.748;8.490;2024-01-15T12:35:33;12.73;;;7.93;;
51660;SDS011;37741;49.748;8.490;2024-01-15T12:37:59;13.70;;;8.60;;
51660;SDS011;37741;49.748;8.490;2024-01-15T12:40:29;13.38;;;7.85;;
51660;SDS011;37741;49.748;8.490;2024-01-15T12:42:56;11.88;;;7.82;;
51660;SDS011;37741;49.748;8.490;2024-01-15T12:45:22;13.43;;;7.97;;
51660;SDS011;37741;49.748;8.490;2024-01-15T12:47:48;11.43;;;7.30;;
51660;SDS011;37741;49.748;8.490;2024-01-15T12:50:16;13.40;;;7.75;;
51660;SDS011;37741;49.748;8.490;2024-01-15T12:52:42;14.23;;;7.85;;
51660;SDS011;37741;49.748;8.490;2024-01-15T12:55:08;11.88;;;8.10;;
51660;SDS011;37741;49.748;8.490;2024-01-15T12:57:35;11.13;;;7.18;;
51660;SDS011;37741;49.748;8.490;2024-01-15T13:00:01;11.93;;;7.07;;
51660;SDS011;37741;49.748;8.490;2024-01-15T13:02:31;11.85;;;7.45;;
51660;SDS011;37741;49.748;8.490;2024-01-15T13:04:58;11.77;;;8.18;;
51660;SDS011;37741;49.748;8.490;2024-01-15T13:07:24;11.23;;;6.65;;
51660;SDS011;37741;49.748;8.490;2024-01-15T13:09:50;9.90;;;6.82;;
51660;SDS011;37741;49.748;8.490;2024-01-15T13:12:19;11.18;;;6.80;;
51660;SDS011;37741;49.748;8.490;2024-01-15T13:14:45;11.80;;;6.57;;
51660;SDS011;37741;49.748;8.490;2024-01-15T13:17:12;11.43;;;6.57;;
51660;SDS011;37741;49.748;8.490;2024-01-15T13:19:39;9.52;;;6.03;;
51660;SDS011;37741;49.748;8.490;2024-01-15T13:22:05;9.45;;;6.10;;
51660;SDS011;37741;49.748;8.490;2024-01-15T13:24:34;9.80;;;5.60;;
51660;SDS011;37741;49.748;8.490;2024-01-15T13:27:01;9.52;;;6.05;;
51660;SDS011;37741;49.748;8.490;2024-01-15T13:29:30;10.40;;;5.85;;
51660;SDS011;37741;49.748;8.490;2024-01-15T13:31:57;9.23;;;5.43;;
51660;SDS011;37741;49.748;8.490;2024-01-15T13:34:23;10.30;;;5.88;;
51660;SDS011;37741;49.748;8.490;2024-01-15T13:36:49;10.98;;;6.32;;
51660;SDS011;37741;49.748;8.490;2024-01-15T13:39:15;9.25;;;5.93;;
51660;SDS011;37741;49.748;8.490;2024-01-15T13:41:45;9.25;;;5.90;;
51660;SDS011;37741;49.748;8.490;2024-01-15T13:44:14;10.88;;;6.10;;
51660;SDS011;37741;49.748;8.490;2024-01-15T13:46:39;10.18;;;5.90;;
51660;SDS011;37741;49.748;8.490;2024-01-15T13:49:05;11.27;;;6.13;;
51660;SDS011;37741;49.748;8.490;2024-01-15T13:51:31;9.43;;;6.00;;
51660;SDS011;37741;49.748;8.490;2024-01-15T13:53:57;8.57;;;5.80;;
51660;SDS011;37741;49.748;8.490;2024-01-15T14:00:17;11.98;;;5.45;;
51660;SDS011;37741;49.748;8.490;2024-01-15T14:08:21;8.18;;;5.22;;
51660;SDS011;37741;49.748;8.490;2024-01-15T14:14:01;8.95;;;4.53;;
51660;SDS011;37741;49.748;8.490;2024-01-15T14:16:27;10.27;;;5.50;;
51660;SDS011;37741;49.748;8.490;2024-01-15T14:18:53;8.70;;;5.35;;
51660;SDS011;37741;49.748;8.490;2024-01-15T14:21:18;8.57;;;4.10;;
51660;SDS011;37741;49.748;8.490;2024-01-15T14:23:44;7.63;;;5.13;;
51660;SDS011;37741;49.748;8.490;2024-01-15T14:26:10;8.32;;;4.75;;
51660;SDS011;37741;49.748;8.490;2024-01-15T14:28:36;6.82;;;4.25;;
51660;SDS011;37741;49.748;8.490;2024-01-15T14:31:01;9.60;;;4.72;;
51660;SDS011;37741;49.748;8.490;2024-01-15T14:33:27;7.80;;;5.22;;
51660;SDS011;37741;49.748;8.490;2024-01-15T14:35:53;6.78;;;4.10;;
51660;SDS011;37741;49.748;8.490;2024-01-15T14:38:19;7.82;;;4.03;;
51660;SDS011;37741;49.748;8.490;2024-01-15T14:40:45;7.03;;;3.67;;
51660;SDS011;37741;49.748;8.490;2024-01-15T14:43:10;8.02;;;4.53;;
51660;SDS011;37741;49.748;8.490;2024-01-15T14:45:36;7.35;;;4.10;;